Detall de PIREP

Printer-friendly versionPDF version

[2011/02/23 08:24:00]
Flight IATA:CT2110
Pilot Number:041
Company ICAO:CAT
Aircraft Type:F28/A
PAX:75
Departing Airport: LEVC
Destination Airport: LEST
Alternate Airport:LECO
Online: VATSIM
Route:CENTA A33 PRADO A33 CJN A33 HORTA A33 MAGIN A33 INDEG A33 DISKO A33 ZMR A33 BARKO A33 FORNO
Flight Level:F230
No Slew and time accel
No pause
Crash detect
Detect pilot in Cockpit between each 30 and 45 minutes
08:24 Zero fuel Weight: 57507 Lbs, Fuel Weight: 13531 Lbs
08:24 VATSIM:LEVC 230800Z 33012KT 300V010 9999 FEW040 17/05 Q1020 NOSIG
08:24 VATSIM:LEST 230800Z VRB02KT 9999 4500SE VCFG FEW003 BKN020 08/08 Q1026 NOSIG
08:24 VOICE CATALONIAN
08:25 Parking Brakes off
08:31 Take-off
08:31 Take off Weight: 70614 Lbs
08:31 Wind: 329º @ 012 Knots Heading: 297º
08:31 POS N39º 29´ 36´´ W000º 29´ 32´´
08:31 Gear Up: 191 Knots
08:31 Flaps:1 at 191 Knots
08:31 Flaps:0 at 227 Knots
08:43 TOC
08:43 Fuel Weight: 11507 Lb
08:46 Wind:263º@006 Knots Heading: 298º Ground Speed: 398 Knots Altitude 23241 ft
09:01 Wind:085º@001 Knots Heading: 296º Ground Speed: 406 Knots Altitude 23293 ft
09:16 Wind:000º@000 Knots Heading: 304º Ground Speed: 406 Knots Altitude 23343 ft
09:23 TOD
09:23 Fuel Weight: 8086 Lb
09:31 Wind:000º@000 Knots Heading: 301º Ground Speed: 284 Knots Altitude 9950 ft
09:36 Flaps:1 at 230 Knots
09:37 Flaps:2 at 219 Knots
09:38 Gear Down: 194 Knots
09:38 Flaps:3 at 193 Knots
09:39 Flaps:4 at 156 Knots
09:40 Flaps:5 at 144 Knots
09:42 TouchDown:Rate -251 ft/min Speed: 115 Knots
09:42 Flaps:0 at 84 Knots
09:42 VATSIM:LEST 230930Z 00000KT 9999 BKN020 09/07 Q1027 NOSIG
09:42 Land
09:42 Wind:000º@000 Knots
09:42 Heading: 345º
09:42 Flight Duration: 01:11
09:42 Landing Weight: 64796 Lbs
09:42 POS N42º 53´ 45´´ W008º 24´ 53´´
09:44 Parking brakes on
09:44 Block to Block Duration: 01:19
09:44 Final Fuel: 7222 Lbls
09:44 Spent Fuel: 6309 Lbls
09:44 Flight Length: 410 NM
09:44 TOD Land Length: 80 NM

Exportar CSV

Powered by Drupal - Modified by Danger4k